Charata, Argentina
Current Conditions -  °F | °C
As of 8:00 PM on Wednesday 17 Dec 2014 (Local Time) from SARE Reporting Station
Drizzle Drizzle  
Wind Chill: 73°   Ceiling: 400
Heat Index: 73°   Visibility: 2.5mi
Dew Point: 73°   Wind: 2mph
Humidity: 100%   Direction: 180°S
Pressure: 29.8"   Gusts: NA
Location:  27.22°S, 61.2°W
Report Text: SARE 172300Z 18002KT 4000 -DZ BKN004 OVC012 23/23 Q1009
Loading
Personal Weather Stations






























Interactive Weather Map New forecast layout! Learn more

10-Day Weather Forecast

Advertisements
Track Severe Weather on mobile